Weather at Charlottesville Albemarle Airport

Public forecast

Using degrees Fahrenheit for public forecast. Weather courtesy of forecast.io.

Current aviation weather report (METAR) for Charlottesville Albemarle Airport

Retrieved 2021/03/03 23:53 UTC (2 hours ago):

KCHO 032353Z 00000KT 10SM CLR 13/M07 A2988 RMK AO2 SLP117 T01281072 10178 20128 53001

Aviation forecast (TAF) for Charlottesville Albemarle Airport

Forecast is more than 6 hours old.

Retrieved 2021/03/03 18:22 UTC (7 hours ago):

TAF KCHO 031720Z 0318/0418 20006KT P6SM SKC FM032300 VRB03KT P6SM SKC FM041500 32007KT P6SM FEW250 FM041700 32010G20KT P6SM FEW250